createdAt,value
2018-11-26T00:00:47.865Z,922.9
2018-11-26T00:01:47.784Z,922.8
2018-11-26T00:02:47.683Z,922.9
2018-11-26T00:03:47.564Z,922.7
2018-11-26T00:04:47.873Z,922.7
2018-11-26T00:05:53.785Z,922.8
2018-11-26T00:06:53.705Z,922.8
2018-11-26T00:07:53.598Z,922.9
2018-11-26T00:08:53.495Z,922.8
2018-11-26T00:09:53.385Z,922.8
2018-11-26T00:10:53.285Z,922.8
2018-11-26T00:11:53.193Z,922.7
2018-11-26T00:12:53.104Z,922.7
2018-11-26T00:13:52.994Z,922.7
2018-11-26T00:14:53.287Z,922.7
2018-11-26T00:15:53.188Z,922.7
2018-11-26T00:16:53.090Z,922.8
2018-11-26T00:17:52.996Z,922.7
2018-11-26T00:18:52.876Z,922.5
2018-11-26T00:19:52.768Z,922.7
2018-11-26T00:20:52.660Z,922.7
2018-11-26T00:21:52.559Z,922.7
2018-11-26T00:22:52.437Z,922.8
2018-11-26T00:23:52.324Z,922.8
2018-11-26T00:24:52.650Z,922.8
2018-11-26T00:25:52.534Z,922.6
2018-11-26T00:26:52.459Z,922.7
2018-11-26T00:27:52.357Z,922.7
2018-11-26T00:28:52.266Z,922.7
2018-11-26T00:29:52.176Z,922.7
2018-11-26T00:30:52.062Z,922.6
2018-11-26T00:31:51.985Z,922.7
2018-11-26T00:32:51.901Z,922.7
2018-11-26T00:33:51.797Z,922.6
2018-11-26T00:34:52.098Z,922.6
2018-11-26T00:35:51.995Z,922.6
2018-11-26T00:36:51.911Z,922.6
2018-11-26T00:37:51.806Z,922.7
2018-11-26T00:38:51.717Z,922.7
2018-11-26T00:39:51.622Z,922.7
2018-11-26T00:40:51.515Z,922.7
2018-11-26T00:41:51.396Z,922.5
2018-11-26T00:42:51.272Z,922.7
2018-11-26T00:43:51.164Z,922.7
2018-11-26T00:44:51.500Z,922.7
2018-11-26T00:45:51.398Z,922.7
2018-11-26T00:46:51.299Z,922.7
2018-11-26T00:47:51.204Z,922.6
2018-11-26T00:48:51.088Z,922.7
2018-11-26T00:49:51.000Z,922.7
2018-11-26T00:50:50.891Z,922.7
2018-11-26T00:51:50.792Z,922.7
2018-11-26T00:52:50.695Z,922.8
2018-11-26T00:53:50.582Z,922.7
2018-11-26T00:54:50.916Z,922.7
2018-11-26T00:55:50.808Z,922.7
2018-11-26T00:56:50.708Z,922.7
2018-11-26T00:57:50.603Z,922.7
2018-11-26T00:58:50.504Z,922.7
2018-11-26T00:59:50.424Z,922.7
2018-11-26T01:00:50.351Z,922.7
2018-11-26T01:01:50.267Z,922.6
2018-11-26T01:02:50.150Z,922.6
2018-11-26T01:03:50.042Z,922.6
2018-11-26T01:04:50.372Z,922.6
2018-11-26T01:05:50.299Z,922.5
2018-11-26T01:06:50.188Z,922.6
2018-11-26T01:07:50.079Z,922.5
2018-11-26T01:08:49.970Z,922.6
2018-11-26T01:09:49.854Z,922.5
2018-11-26T01:10:49.732Z,922.5
2018-11-26T01:11:49.652Z,922.4
2018-11-26T01:12:49.550Z,922.4
2018-11-26T01:13:49.440Z,922.6
2018-11-26T01:14:49.754Z,922.5
2018-11-26T01:15:49.639Z,922.6
2018-11-26T01:16:49.546Z,922.5
2018-11-26T01:17:49.460Z,922.6
2018-11-26T01:18:49.371Z,922.5
2018-11-26T01:19:49.283Z,922.5
2018-11-26T01:20:49.164Z,922.5
2018-11-26T01:21:49.062Z,922.6
2018-11-26T01:22:48.948Z,922.4
2018-11-26T01:23:48.839Z,922.5
2018-11-26T01:24:49.149Z,922.4
2018-11-26T01:25:49.036Z,920.8
2018-11-26T01:26:48.928Z,922.3
2018-11-26T01:27:48.821Z,922.4
2018-11-26T01:28:48.709Z,922.4
2018-11-26T01:29:48.594Z,922.4
2018-11-26T01:30:48.474Z,922.5
2018-11-26T01:31:48.407Z,922.3
2018-11-26T01:32:48.301Z,922.3
2018-11-26T01:33:48.180Z,922.3
2018-11-26T01:34:48.498Z,922.3
2018-11-26T01:35:48.390Z,922.4
2018-11-26T01:36:48.294Z,922.3
2018-11-26T01:37:48.194Z,922.2
2018-11-26T01:38:48.081Z,922.1
2018-11-26T01:39:47.966Z,922.4
2018-11-26T01:40:47.892Z,922.1
2018-11-26T01:41:47.784Z,922.3
2018-11-26T01:42:47.670Z,922.3
2018-11-26T01:43:47.564Z,922.3
2018-11-26T01:44:47.878Z,922.2
2018-11-26T01:45:47.762Z,922.2
2018-11-26T01:46:47.671Z,922.2
2018-11-26T01:47:47.555Z,922.2
2018-11-26T01:48:47.454Z,922.2
2018-11-26T01:49:47.338Z,922
2018-11-26T01:50:47.224Z,922.2
2018-11-26T01:51:47.112Z,922.1
2018-11-26T01:52:47.043Z,922.1
2018-11-26T01:53:46.936Z,922.1
2018-11-26T01:54:47.262Z,922.1
2018-11-26T01:55:47.134Z,922.1
2018-11-26T01:56:47.038Z,922.1
2018-11-26T01:57:46.933Z,922.1
2018-11-26T01:58:46.852Z,922.1
2018-11-26T01:59:46.752Z,922.1
2018-11-26T02:00:46.636Z,922.2
2018-11-26T02:01:46.516Z,922.1
2018-11-26T02:02:46.412Z,921.9
2018-11-26T02:03:46.304Z,921.9
2018-11-26T02:04:46.630Z,922.1
2018-11-26T02:05:46.528Z,921.9
2018-11-26T02:06:46.426Z,921.9
2018-11-26T02:07:46.328Z,921.9
2018-11-26T02:08:46.238Z,922
2018-11-26T02:09:46.129Z,922.1
2018-11-26T02:10:46.032Z,922.1
2018-11-26T02:11:45.922Z,922.1
2018-11-26T02:12:45.849Z,922.1
2018-11-26T02:13:45.748Z,922.1
2018-11-26T02:14:46.098Z,922.1
2018-11-26T02:15:46.007Z,922.2
2018-11-26T02:16:45.892Z,922.2
2018-11-26T02:17:45.788Z,922.1
2018-11-26T02:18:45.670Z,922.2
2018-11-26T02:19:45.584Z,922.2
2018-11-26T02:20:45.472Z,922.1
2018-11-26T02:21:45.380Z,922.1
2018-11-26T02:22:45.284Z,922.1
2018-11-26T02:23:45.183Z,922.1
2018-11-26T02:24:45.497Z,922.1
2018-11-26T02:25:45.379Z,922
2018-11-26T02:26:45.272Z,922.1
2018-11-26T02:27:45.168Z,922
2018-11-26T02:28:45.067Z,922
2018-11-26T02:29:44.965Z,921.9
2018-11-26T02:30:44.864Z,920.5
2018-11-26T02:31:44.770Z,922
2018-11-26T02:32:44.669Z,922
2018-11-26T02:33:44.563Z,921.9
2018-11-26T02:34:44.897Z,922
2018-11-26T02:35:44.791Z,922.1
2018-11-26T02:36:44.684Z,921.9
2018-11-26T02:37:44.575Z,922.1
2018-11-26T02:38:44.478Z,922.1
2018-11-26T02:39:44.420Z,922.1
2018-11-26T02:40:44.344Z,922.1
2018-11-26T02:41:44.261Z,922.1
2018-11-26T02:42:44.142Z,922.1
2018-11-26T02:43:44.041Z,922
2018-11-26T02:44:44.368Z,922
2018-11-26T02:45:44.263Z,922
2018-11-26T02:46:44.146Z,922.1
2018-11-26T02:47:44.031Z,922.1
2018-11-26T02:48:43.914Z,922.1
2018-11-26T02:49:43.893Z,922.1
2018-11-26T02:50:43.806Z,922.1
2018-11-26T02:51:43.699Z,922.1
2018-11-26T02:52:43.612Z,922.1
2018-11-26T02:53:43.511Z,922.1
2018-11-26T02:54:43.873Z,922.1
2018-11-26T02:55:43.779Z,922
2018-11-26T02:56:43.675Z,922.2
2018-11-26T02:57:43.560Z,922.2
2018-11-26T02:58:43.470Z,922.2
2018-11-26T02:59:43.383Z,922.2
2018-11-26T03:00:43.292Z,922.2
2018-11-26T03:01:43.179Z,922.1
2018-11-26T03:02:43.069Z,922.1
2018-11-26T03:03:42.966Z,922.2
2018-11-26T03:04:43.300Z,922.1
2018-11-26T03:05:43.206Z,922.2
2018-11-26T03:06:43.098Z,922.2
2018-11-26T03:07:43.016Z,922.2
2018-11-26T03:08:42.936Z,922.1
2018-11-26T03:09:42.824Z,922.2
2018-11-26T03:10:42.704Z,922.2
2018-11-26T03:11:42.614Z,922.2
2018-11-26T03:12:42.527Z,922.2
2018-11-26T03:13:42.422Z,922.2
2018-11-26T03:14:42.761Z,922.2
2018-11-26T03:15:42.663Z,922.2
2018-11-26T03:16:42.557Z,922.2
2018-11-26T03:17:42.512Z,921.7
2018-11-26T03:18:42.428Z,922.2
2018-11-26T03:19:42.312Z,922
2018-11-26T03:20:42.053Z,922.2
2018-11-26T03:21:41.960Z,922.1
2018-11-26T03:22:41.835Z,922.1
2018-11-26T03:23:41.722Z,922.1
2018-11-26T03:24:42.127Z,922.1
2018-11-26T03:25:42.017Z,922.2
2018-11-26T03:26:41.937Z,922.3
2018-11-26T03:27:41.831Z,922.2
2018-11-26T03:28:41.714Z,922.2
2018-11-26T03:29:41.616Z,922.2
2018-11-26T03:30:41.610Z,922.2
2018-11-26T03:31:41.570Z,922.2
2018-11-26T03:32:41.469Z,922.3
2018-11-26T03:33:41.383Z,922.2
2018-11-26T03:34:41.755Z,922.3
2018-11-26T03:35:41.655Z,922.4
2018-11-26T03:36:41.571Z,922.3
2018-11-26T03:37:41.469Z,922.4
2018-11-26T03:38:41.367Z,922.4
2018-11-26T03:39:41.273Z,922.4
2018-11-26T03:40:41.151Z,922.3
2018-11-26T03:41:41.041Z,922.4
2018-11-26T03:42:40.924Z,922.3
2018-11-26T03:43:40.821Z,922.3
2018-11-26T03:44:41.210Z,922.4
2018-11-26T03:45:41.109Z,922.3
2018-11-26T03:46:41.024Z,922.3
2018-11-26T03:47:40.921Z,922.2
2018-11-26T03:48:40.829Z,922.3
2018-11-26T03:49:40.726Z,922.3
2018-11-26T03:50:40.607Z,922.3
2018-11-26T03:51:40.522Z,922.3
2018-11-26T03:52:40.413Z,922.3
2018-11-26T03:53:40.320Z,922.3
2018-11-26T03:54:40.688Z,922.3
2018-11-26T03:55:40.601Z,922.2
2018-11-26T03:56:40.509Z,922.2
2018-11-26T03:57:40.400Z,922.2
2018-11-26T03:58:40.282Z,922.3
2018-11-26T03:59:40.191Z,922.3
2018-11-26T04:00:40.075Z,922.2
2018-11-26T04:01:39.979Z,922.3
2018-11-26T04:02:39.923Z,922.2
2018-11-26T04:03:39.838Z,922.1
2018-11-26T04:04:40.165Z,922.3
2018-11-26T04:05:40.084Z,922.2
2018-11-26T04:06:40.041Z,922.4
2018-11-26T04:07:39.937Z,922.3
2018-11-26T04:08:39.833Z,922.3
2018-11-26T04:09:39.731Z,922.3
2018-11-26T04:10:39.643Z,922.3
2018-11-26T04:11:39.395Z,922.4
2018-11-26T04:12:39.311Z,922.3
2018-11-26T04:13:39.239Z,922.4
2018-11-26T04:14:39.559Z,922.4
2018-11-26T04:15:39.455Z,922.4
2018-11-26T04:16:39.394Z,922.4
2018-11-26T04:17:39.288Z,922.4
2018-11-26T04:18:39.195Z,922.4
2018-11-26T04:19:39.078Z,922.5
2018-11-26T04:20:38.973Z,922.4
2018-11-26T04:21:38.887Z,922.4
2018-11-26T04:22:38.826Z,922.4
2018-11-26T04:23:38.732Z,922.4
2018-11-26T04:24:39.051Z,922.2
2018-11-26T04:25:38.993Z,922.4
2018-11-26T04:26:38.900Z,922.3
2018-11-26T04:27:38.815Z,922.4
2018-11-26T04:28:38.715Z,922.4
2018-11-26T04:29:38.607Z,922.3
2018-11-26T04:30:38.484Z,922.3
2018-11-26T04:31:38.368Z,922.4
2018-11-26T04:32:38.278Z,922.4
2018-11-26T04:33:38.208Z,922.5
2018-11-26T04:34:38.580Z,922.5
2018-11-26T04:35:38.472Z,922.5
2018-11-26T04:36:38.369Z,922.5
2018-11-26T04:37:38.295Z,922.5
2018-11-26T04:38:38.221Z,922.3
2018-11-26T04:39:38.117Z,922.4
2018-11-26T04:40:38.021Z,922.5
2018-11-26T04:41:37.911Z,922.4
2018-11-26T04:42:37.830Z,922.4
2018-11-26T04:43:37.712Z,922.4
2018-11-26T04:44:38.053Z,922.4
2018-11-26T04:45:37.955Z,922.5
2018-11-26T04:46:37.873Z,922.3
2018-11-26T04:47:37.857Z,922.4
2018-11-26T04:48:37.768Z,922.4
2018-11-26T04:49:37.671Z,922.4
2018-11-26T04:50:37.564Z,922.4
2018-11-26T04:51:37.475Z,922.4
2018-11-26T04:52:37.378Z,922.4
2018-11-26T04:53:37.270Z,922.5
2018-11-26T04:54:37.647Z,922.5
2018-11-26T04:55:37.562Z,922.5
2018-11-26T04:56:37.454Z,922.5
2018-11-26T04:57:43.776Z,922.5
2018-11-26T04:58:43.671Z,922.5
2018-11-26T04:59:43.572Z,922.5
2018-11-26T05:00:43.497Z,922.4
2018-11-26T05:01:43.388Z,922.5
2018-11-26T05:02:43.288Z,922.6
2018-11-26T05:03:43.189Z,922.5
2018-11-26T05:04:43.523Z,922.4
2018-11-26T05:05:43.439Z,922.4
2018-11-26T05:06:43.349Z,922.6
2018-11-26T05:07:43.286Z,922.6
2018-11-26T05:08:43.193Z,922.6
2018-11-26T05:09:43.118Z,922.5
2018-11-26T05:10:43.022Z,922.5
2018-11-26T05:11:42.918Z,922.6
2018-11-26T05:12:42.820Z,922.5
2018-11-26T05:13:42.779Z,922.4
2018-11-26T05:14:43.085Z,922.5
2018-11-26T05:15:42.977Z,922.5
2018-11-26T05:16:42.889Z,922.5
2018-11-26T05:17:42.833Z,922.6
2018-11-26T05:18:42.719Z,922.6
2018-11-26T05:19:42.655Z,922.5
2018-11-26T05:20:42.552Z,922.5
2018-11-26T05:21:42.447Z,922.6
2018-11-26T05:22:42.407Z,922.6
2018-11-26T05:23:42.291Z,922.6
2018-11-26T05:24:42.638Z,922.5
2018-11-26T05:25:42.543Z,922.6
2018-11-26T05:26:42.457Z,922.6
2018-11-26T05:27:42.351Z,922.5
2018-11-26T05:28:42.280Z,922.1
2018-11-26T05:29:42.168Z,922.5
2018-11-26T05:30:42.104Z,922.5
2018-11-26T05:31:42.008Z,922.6
2018-11-26T05:32:41.907Z,922.5
2018-11-26T05:33:41.640Z,922.6
2018-11-26T05:34:41.940Z,922.5
2018-11-26T05:35:41.830Z,922.6
2018-11-26T05:36:41.733Z,922.5
2018-11-26T05:37:41.610Z,922.5
2018-11-26T05:38:41.504Z,922.4
2018-11-26T05:39:41.391Z,922.5
2018-11-26T05:40:41.290Z,922.5
2018-11-26T05:41:41.202Z,922.5
2018-11-26T05:42:41.106Z,922.4
2018-11-26T05:43:40.997Z,922.5
2018-11-26T05:44:41.438Z,922.4
2018-11-26T05:45:41.345Z,922.4
2018-11-26T05:46:41.270Z,922.5
2018-11-26T05:47:41.176Z,922.5
2018-11-26T05:48:41.074Z,922.4
2018-11-26T05:49:41.002Z,922.4
2018-11-26T05:50:40.906Z,922.4
2018-11-26T05:51:40.806Z,922.5
2018-11-26T05:52:40.720Z,922.4
2018-11-26T05:53:40.598Z,922.5
2018-11-26T05:54:40.901Z,922.5
2018-11-26T05:55:40.784Z,922.4
2018-11-26T05:56:40.675Z,922.4
2018-11-26T05:57:40.595Z,922.3
2018-11-26T05:58:40.480Z,922.5
2018-11-26T05:59:40.385Z,922.4
2018-11-26T06:00:40.286Z,922.4
2018-11-26T06:01:40.170Z,922.5
2018-11-26T06:02:40.090Z,922.5
2018-11-26T06:03:39.993Z,922.5
2018-11-26T06:04:40.337Z,922.4
2018-11-26T06:05:40.224Z,922.5
2018-11-26T06:06:40.123Z,922.5
2018-11-26T06:07:40.014Z,922.5
2018-11-26T06:08:39.904Z,922.6
2018-11-26T06:09:39.797Z,922.5
2018-11-26T06:10:39.534Z,922.6
2018-11-26T06:11:39.428Z,922.5
2018-11-26T06:12:39.331Z,922.5
2018-11-26T06:13:39.250Z,922.5
2018-11-26T06:14:39.665Z,922.5
2018-11-26T06:15:39.544Z,922.5
2018-11-26T06:16:39.411Z,922.5
2018-11-26T06:17:39.314Z,921
2018-11-26T06:18:39.195Z,922.6
2018-11-26T06:19:39.112Z,922.5
2018-11-26T06:20:39.016Z,922.4
2018-11-26T06:21:38.910Z,922.6
2018-11-26T06:22:38.832Z,922.5
2018-11-26T06:23:38.748Z,922.6
2018-11-26T06:24:39.093Z,922.6
2018-11-26T06:25:38.989Z,922.6
2018-11-26T06:26:38.889Z,922.6
2018-11-26T06:27:38.793Z,922.6
2018-11-26T06:28:38.690Z,922.6
2018-11-26T06:29:38.621Z,922.6
2018-11-26T06:30:38.512Z,922.5
2018-11-26T06:31:38.408Z,922.6
2018-11-26T06:32:38.302Z,922.6
2018-11-26T06:33:38.208Z,922.5
2018-11-26T06:34:43.290Z,922.6
2018-11-26T06:35:43.199Z,922.7
2018-11-26T06:36:43.104Z,922.6
2018-11-26T06:37:43.030Z,922.7
2018-11-26T06:38:42.918Z,922.5
2018-11-26T06:39:42.801Z,922.7
2018-11-26T06:40:42.716Z,922.7
2018-11-26T06:41:42.601Z,922.7
2018-11-26T06:42:42.490Z,922.8
2018-11-26T06:43:42.386Z,922.7
2018-11-26T06:44:42.718Z,922.7
2018-11-26T06:45:42.630Z,922.7
2018-11-26T06:46:42.522Z,922.7
2018-11-26T06:47:42.430Z,922.8
2018-11-26T06:48:42.350Z,922.7
2018-11-26T06:49:42.252Z,922.8
2018-11-26T06:50:42.146Z,922.7
2018-11-26T06:51:42.054Z,922.8
2018-11-26T06:52:41.956Z,922.8
2018-11-26T06:53:41.861Z,922.7
2018-11-26T06:54:42.194Z,922.7
2018-11-26T06:55:42.084Z,922.8
2018-11-26T06:56:41.996Z,922.8
2018-11-26T06:57:41.878Z,922.9
2018-11-26T06:58:41.766Z,922.8
2018-11-26T06:59:41.694Z,922.9
2018-11-26T07:00:41.587Z,922.8
2018-11-26T07:01:41.488Z,922.8
2018-11-26T07:02:41.384Z,922.8
2018-11-26T07:03:41.257Z,922.8
2018-11-26T07:04:41.642Z,922.8
2018-11-26T07:05:41.544Z,922.8
2018-11-26T07:06:41.437Z,922.9
2018-11-26T07:07:41.353Z,922.9
2018-11-26T07:08:41.262Z,922.9
2018-11-26T07:09:41.179Z,922.9
2018-11-26T07:10:41.134Z,922.9
2018-11-26T07:11:41.049Z,922.9
2018-11-26T07:12:40.950Z,923
2018-11-26T07:13:40.879Z,922.9
2018-11-26T07:14:41.216Z,922.8
2018-11-26T07:15:41.127Z,922.8
2018-11-26T07:16:41.035Z,922.6
2018-11-26T07:17:40.939Z,922.8
2018-11-26T07:18:40.840Z,922.9
2018-11-26T07:19:40.716Z,923
2018-11-26T07:20:40.615Z,923
2018-11-26T07:21:40.484Z,923.1
2018-11-26T07:22:40.372Z,922.9
2018-11-26T07:23:40.291Z,923
2018-11-26T07:24:40.607Z,923
2018-11-26T07:25:40.512Z,923
2018-11-26T07:26:40.411Z,923.1
2018-11-26T07:27:40.307Z,923
2018-11-26T07:28:40.254Z,923
2018-11-26T07:29:40.140Z,923
2018-11-26T07:30:40.064Z,923
2018-11-26T07:31:39.964Z,923
2018-11-26T07:32:39.854Z,923
2018-11-26T07:33:39.752Z,923
2018-11-26T07:34:40.118Z,922.9
2018-11-26T07:35:40.026Z,922.9
2018-11-26T07:36:39.892Z,923
2018-11-26T07:37:39.819Z,923
2018-11-26T07:38:40.819Z,923
2018-11-26T07:39:40.738Z,923
2018-11-26T07:40:40.634Z,923
2018-11-26T07:41:40.533Z,922.9
2018-11-26T07:42:40.419Z,922.9
2018-11-26T07:43:40.350Z,922.9
2018-11-26T07:44:40.672Z,923
2018-11-26T07:45:40.619Z,922.8
2018-11-26T07:46:40.556Z,923
2018-11-26T07:47:40.430Z,923
2018-11-26T07:48:40.337Z,922.9
2018-11-26T07:49:40.242Z,923
2018-11-26T07:50:40.144Z,923
2018-11-26T07:51:40.091Z,923
2018-11-26T07:52:39.980Z,923
2018-11-26T07:53:39.860Z,923
2018-11-26T07:54:40.220Z,923
2018-11-26T07:55:40.144Z,923
2018-11-26T07:56:40.056Z,923
2018-11-26T07:57:39.989Z,923
2018-11-26T07:58:39.894Z,923
2018-11-26T07:59:39.778Z,922.8
2018-11-26T08:00:39.668Z,923
2018-11-26T08:01:39.611Z,923
2018-11-26T08:02:39.523Z,923
2018-11-26T08:03:39.434Z,923
2018-11-26T08:04:39.745Z,923.1
2018-11-26T08:05:39.645Z,923
2018-11-26T08:06:39.559Z,923.1
2018-11-26T08:07:39.476Z,923
2018-11-26T08:08:39.384Z,923
2018-11-26T08:09:39.269Z,923
2018-11-26T08:10:39.189Z,923
2018-11-26T08:11:39.106Z,923.1
2018-11-26T08:12:39.000Z,923.1
2018-11-26T08:13:38.923Z,923.1
2018-11-26T08:14:39.235Z,923.1
2018-11-26T08:15:39.122Z,923.2
2018-11-26T08:16:39.000Z,923.1
2018-11-26T08:17:38.951Z,923.2
2018-11-26T08:18:38.863Z,923.2
2018-11-26T08:19:38.761Z,923.2
2018-11-26T08:20:38.683Z,923.2
2018-11-26T08:21:38.604Z,923.2
2018-11-26T08:22:38.506Z,923
2018-11-26T08:23:38.426Z,923.2
2018-11-26T08:24:38.771Z,923.2
2018-11-26T08:25:38.685Z,923.2
2018-11-26T08:26:38.589Z,923.2
2018-11-26T08:27:38.482Z,923.2
2018-11-26T08:28:38.400Z,923.2
2018-11-26T08:29:38.309Z,923.2
2018-11-26T08:30:38.224Z,923.3
2018-11-26T08:31:38.117Z,923.3
2018-11-26T08:32:38.085Z,923.3
2018-11-26T08:33:37.998Z,923.3
2018-11-26T08:34:38.317Z,923.2
2018-11-26T08:35:38.229Z,923.3
2018-11-26T08:36:38.120Z,923.3
2018-11-26T08:37:38.021Z,923.2
2018-11-26T08:38:37.919Z,923.3
2018-11-26T08:39:37.805Z,923.3
2018-11-26T08:40:37.735Z,923.3
2018-11-26T08:41:37.639Z,923.4
2018-11-26T08:42:37.529Z,923.3
2018-11-26T08:43:37.434Z,923.3
2018-11-26T08:44:39.922Z,923.3
2018-11-26T08:45:39.849Z,923.3
2018-11-26T08:46:39.755Z,923.3
2018-11-26T08:47:39.644Z,923.4
2018-11-26T08:48:39.555Z,923.3
2018-11-26T08:49:39.463Z,923.3
2018-11-26T08:50:39.453Z,923.4
2018-11-26T08:51:39.598Z,923.4
2018-11-26T08:52:39.498Z,923.3
2018-11-26T08:53:39.426Z,923.3
2018-11-26T08:54:39.789Z,923.4
2018-11-26T08:55:39.689Z,923.4
2018-11-26T08:56:39.579Z,923.4
2018-11-26T08:57:39.468Z,923.4
2018-11-26T08:58:39.385Z,923.4
2018-11-26T08:59:39.289Z,923.4
2018-11-26T09:00:39.183Z,923.5
2018-11-26T09:01:39.899Z,923.5
2018-11-26T09:02:39.792Z,923.2
2018-11-26T09:03:39.692Z,923.4
2018-11-26T09:04:40.038Z,923.5
2018-11-26T09:05:39.918Z,923.4
2018-11-26T09:06:39.810Z,923.3
2018-11-26T09:07:39.700Z,923.5
2018-11-26T09:08:39.600Z,923.5
2018-11-26T09:09:39.524Z,923.3
2018-11-26T09:10:39.435Z,923.4
2018-11-26T09:11:39.349Z,923.5
2018-11-26T09:12:39.253Z,923.4
2018-11-26T09:13:39.145Z,923.4
2018-11-26T09:14:39.516Z,923.5
2018-11-26T09:15:39.397Z,923.5
2018-11-26T09:16:39.293Z,923.5
2018-11-26T09:17:39.192Z,923.5
2018-11-26T09:18:39.101Z,923.5
2018-11-26T09:19:38.988Z,923.4
2018-11-26T09:20:38.902Z,923.6
2018-11-26T09:21:38.801Z,923.5
2018-11-26T09:22:38.702Z,923.4
2018-11-26T09:23:38.591Z,923.6
2018-11-26T09:24:38.908Z,923.5
2018-11-26T09:25:38.815Z,923.4
2018-11-26T09:26:38.732Z,922
2018-11-26T09:27:38.641Z,923.4
2018-11-26T09:28:38.551Z,923.6
2018-11-26T09:29:38.455Z,923.6
2018-11-26T09:30:38.377Z,923.6
2018-11-26T09:31:38.284Z,923.5
2018-11-26T09:32:38.179Z,923.6
2018-11-26T09:33:38.093Z,923.6
2018-11-26T09:34:38.543Z,923.6
2018-11-26T09:35:38.551Z,923.5
2018-11-26T09:36:38.453Z,923.6
2018-11-26T09:37:38.345Z,923.6
2018-11-26T09:38:38.245Z,923.5
2018-11-26T09:39:38.164Z,923.7
2018-11-26T09:40:38.083Z,923.6
2018-11-26T09:41:38.151Z,923.7
2018-11-26T09:42:38.085Z,923.7
2018-11-26T09:43:37.989Z,923.6
2018-11-26T09:44:38.466Z,923.6
2018-11-26T09:45:41.458Z,923.6
2018-11-26T09:46:41.401Z,923.7
2018-11-26T09:47:41.280Z,923.7
2018-11-26T09:48:41.188Z,923.6
2018-11-26T09:49:41.234Z,923.6
2018-11-26T09:50:41.185Z,923.7
2018-11-26T09:51:43.147Z,923.7
2018-11-26T09:52:43.067Z,923.7
2018-11-26T09:53:42.980Z,923.6
2018-11-26T09:54:43.369Z,923.6
2018-11-26T09:55:43.296Z,923.7
2018-11-26T09:56:43.189Z,923.7
2018-11-26T09:57:43.094Z,923.7
2018-11-26T09:58:42.999Z,923.6
2018-11-26T09:59:42.903Z,923.6
2018-11-26T10:00:42.811Z,923.6
2018-11-26T10:01:42.695Z,923.6
2018-11-26T10:02:42.597Z,923.6
2018-11-26T10:03:42.618Z,923.6
2018-11-26T10:04:42.951Z,923.5
2018-11-26T10:05:42.875Z,923.5
2018-11-26T10:06:42.796Z,923.4
2018-11-26T10:07:42.732Z,923.5
2018-11-26T10:08:42.635Z,923.5
2018-11-26T10:09:42.559Z,923.6
2018-11-26T10:10:42.467Z,923.6
2018-11-26T10:11:42.375Z,923.6
2018-11-26T10:12:42.329Z,922.9
2018-11-26T10:13:42.235Z,923.5
2018-11-26T10:14:42.751Z,923.4
2018-11-26T10:15:42.713Z,923.5
2018-11-26T10:16:42.591Z,923.5
2018-11-26T10:17:42.481Z,923.6
2018-11-26T10:18:42.389Z,923.5
2018-11-26T10:19:42.299Z,923.5
2018-11-26T10:20:42.218Z,923.5
2018-11-26T10:21:42.110Z,923.5
2018-11-26T10:22:41.988Z,923.5
2018-11-26T10:23:41.883Z,923.4
2018-11-26T10:24:42.219Z,923.5
2018-11-26T10:25:42.127Z,923.5
2018-11-26T10:26:42.035Z,923.5
2018-11-26T10:27:41.939Z,923.5
2018-11-26T10:28:41.839Z,923.5
2018-11-26T10:29:41.745Z,923.4
2018-11-26T10:30:41.652Z,923.4
2018-11-26T10:31:41.551Z,923.5
2018-11-26T10:32:41.505Z,923.5
2018-11-26T10:33:41.380Z,923.4
2018-11-26T10:34:41.736Z,923.4
2018-11-26T10:35:41.640Z,923.3
2018-11-26T10:36:42.045Z,923.5
2018-11-26T10:37:41.940Z,923.5
2018-11-26T10:38:41.900Z,923.5
2018-11-26T10:39:41.807Z,923.5
2018-11-26T10:40:41.698Z,923.5
2018-11-26T10:41:41.600Z,923.5
2018-11-26T10:42:41.503Z,923.5
2018-11-26T10:43:41.423Z,923.5
2018-11-26T10:44:41.762Z,923.5
2018-11-26T10:45:41.666Z,923.4
2018-11-26T10:46:41.552Z,923.5
2018-11-26T10:47:41.459Z,923.5
2018-11-26T10:48:41.354Z,923.5
2018-11-26T10:49:41.266Z,923.5
2018-11-26T10:50:41.194Z,923.5
2018-11-26T10:51:41.149Z,923.5
2018-11-26T10:52:41.045Z,923.3
2018-11-26T10:53:40.971Z,923.4
2018-11-26T10:54:41.286Z,923.4
2018-11-26T10:55:41.182Z,923.4
2018-11-26T10:56:41.067Z,923.3
2018-11-26T10:57:40.957Z,923.4
2018-11-26T10:58:40.852Z,923.4
2018-11-26T10:59:40.750Z,923.4
2018-11-26T11:00:40.669Z,923.4
2018-11-26T11:01:40.558Z,923.4
2018-11-26T11:02:40.447Z,923.4
2018-11-26T11:03:40.372Z,923.3
2018-11-26T11:04:48.162Z,923.4
2018-11-26T11:05:48.065Z,923.4
2018-11-26T11:06:47.959Z,923.4
2018-11-26T11:07:47.883Z,923.4
2018-11-26T11:08:47.810Z,923.2
2018-11-26T11:09:47.719Z,921.9
2018-11-26T11:10:47.614Z,923.3
2018-11-26T11:11:47.521Z,923.4
2018-11-26T11:12:47.441Z,923.4
2018-11-26T11:13:47.354Z,923.5
2018-11-26T11:14:47.675Z,923.5
2018-11-26T11:15:47.598Z,923.4
2018-11-26T11:16:47.505Z,923.4
2018-11-26T11:17:47.405Z,923.4
2018-11-26T11:18:47.310Z,923.4
2018-11-26T11:19:47.237Z,923.4
2018-11-26T11:20:47.157Z,923.4
2018-11-26T11:21:47.048Z,923.4
2018-11-26T11:22:46.960Z,923.4
2018-11-26T11:23:46.877Z,923.2
2018-11-26T11:24:47.210Z,923.4
2018-11-26T11:25:47.120Z,923.2
2018-11-26T11:26:47.031Z,923.4
2018-11-26T11:27:46.953Z,923.4
2018-11-26T11:28:46.853Z,923.3
2018-11-26T11:29:46.756Z,923.3
2018-11-26T11:30:46.646Z,923.3
2018-11-26T11:31:46.535Z,923.2
2018-11-26T11:32:46.416Z,923.3
2018-11-26T11:33:46.297Z,923.3
2018-11-26T11:34:46.640Z,923.2
2018-11-26T11:35:46.541Z,923.1
2018-11-26T11:36:46.440Z,923.3
2018-11-26T11:37:46.337Z,923.3
2018-11-26T11:38:46.235Z,923.4
2018-11-26T11:39:46.120Z,923.3
2018-11-26T11:40:46.039Z,923.3
2018-11-26T11:41:45.945Z,923.3
2018-11-26T11:42:45.835Z,923.4
2018-11-26T11:43:45.701Z,923
2018-11-26T11:44:46.079Z,923.3
2018-11-26T11:45:46.015Z,923.2
2018-11-26T11:46:45.894Z,923.4
2018-11-26T11:47:45.795Z,923.4
2018-11-26T11:48:45.695Z,923.4
2018-11-26T11:49:45.587Z,923.4
2018-11-26T11:50:45.462Z,923.4
2018-11-26T11:51:45.371Z,923.4
2018-11-26T11:52:45.262Z,923.3
2018-11-26T11:53:45.126Z,923.2
2018-11-26T11:54:45.463Z,923.5
2018-11-26T11:55:45.353Z,923.3
2018-11-26T11:56:45.267Z,923.3
2018-11-26T11:57:45.171Z,923.4
2018-11-26T11:58:45.069Z,923.3
2018-11-26T11:59:44.973Z,923.3
2018-11-26T12:00:44.858Z,923.4
2018-11-26T12:01:44.741Z,923.5
2018-11-26T12:02:44.689Z,923.4
2018-11-26T12:03:44.566Z,923.4
2018-11-26T12:04:44.908Z,922.2
2018-11-26T12:05:44.825Z,922.8
2018-11-26T12:06:44.728Z,922.9
2018-11-26T12:07:44.629Z,923.4
2018-11-26T12:08:44.522Z,923.4
2018-11-26T12:09:44.421Z,923.4
2018-11-26T12:10:44.315Z,923.3
2018-11-26T12:11:44.214Z,923.5
2018-11-26T12:12:44.110Z,923.5
2018-11-26T12:13:44.002Z,923.4
2018-11-26T12:14:44.325Z,923.5
2018-11-26T12:15:44.209Z,923.5
2018-11-26T12:16:44.091Z,923.5
2018-11-26T12:17:44.028Z,923.5
2018-11-26T12:18:43.951Z,923.4
2018-11-26T12:19:43.851Z,923.4
2018-11-26T12:20:43.729Z,923.5
2018-11-26T12:21:43.618Z,923.4
2018-11-26T12:22:43.515Z,923.4
2018-11-26T12:23:43.462Z,923.4
2018-11-26T12:24:43.789Z,923.5
2018-11-26T12:25:43.690Z,923.4
2018-11-26T12:26:43.609Z,923.3
2018-11-26T12:27:43.521Z,923.3
2018-11-26T12:28:43.406Z,923.4
2018-11-26T12:29:43.312Z,923.4
2018-11-26T12:30:43.192Z,923.5
2018-11-26T12:31:43.073Z,923.5
2018-11-26T12:32:42.948Z,923
2018-11-26T12:33:42.813Z,923.4
2018-11-26T12:34:43.123Z,923.5
2018-11-26T12:35:43.035Z,923.5
2018-11-26T12:36:42.925Z,923.5
2018-11-26T12:37:42.822Z,923.5
2018-11-26T12:38:42.712Z,923.5
2018-11-26T12:39:42.598Z,923.5
2018-11-26T12:40:42.513Z,923.5
2018-11-26T12:41:42.405Z,923.5
2018-11-26T12:42:42.347Z,923.5
2018-11-26T12:43:42.257Z,923.5
2018-11-26T12:44:42.577Z,923.6
2018-11-26T12:45:42.474Z,923.5
2018-11-26T12:46:42.444Z,923.5
2018-11-26T12:47:42.315Z,923.4
2018-11-26T12:48:42.201Z,923.6
2018-11-26T12:49:42.073Z,923.5
2018-11-26T12:50:41.960Z,923.5
2018-11-26T12:51:41.877Z,923.5
2018-11-26T12:52:41.754Z,923.5
2018-11-26T12:53:41.677Z,923.4
2018-11-26T12:54:41.976Z,923.5
2018-11-26T12:55:41.885Z,923.5
2018-11-26T12:56:41.774Z,923.4